Terminal Aerodrome Forecast
Issued by NWS

Home | Current Version | Previous Version | Text Only | Print | Product List | Glossary On
Versions: 1 2 3 4 5 6 7 8 9 10 11 12 13 14 15 16 17
000
FTUS43 KGRB 222300
TAFATW
TAF
KATW 222330Z 2300/2324 13005KT P6SM SCT080 SCT250
     FM230800 15004KT P6SM SCT070 BKN250
      TEMPO 2308/2312 3SM BR
     FM231600 18008KT P6SM SCT035 OVC050
     FM232100 19009KT 5SM -SHRA BKN030=

USA.gov is the U.S. government's official web portal to all federal, state and local government web resources and services.